| time (UTC) | temp F | wind direction | speed knots | gust knots | rain 1hr in | rain 24hr in | rain mn in | humidity % | barometer mb |
| 20260504140108 | 71 | 0 | 0.0 | 1.7 | 0.00 | 0.00 | 0.00 | 51 | 1018.7 |
| 20260504130114 | 66 | 0 | 0.0 | 0.0 | 0.00 | 0.00 | 0.00 | 72 | 1018.4 |
| 20260504120133 | 54 | 0 | 0.0 | 0.0 | 0.00 | 0.00 | 0.00 | 96 | 1018.2 |
| 20260504081603 | 51 | 0 | 0.0 | 0.0 | 0.00 | 0.01 | 0.00 | 92 | 1017.8 |
| 20260504044556 | 56 | 0 | 0.0 | 0.0 | 0.00 | 0.01 | 0.00 | 87 | 1019.0 |
| 20260504043114 | 56 | 0 | 0.0 | 0.0 | 0.00 | 0.01 | 0.00 | 86 | 1019.2 |
| 20260504041555 | 57 | 0 | 0.0 | 0.0 | 0.00 | 0.01 | 0.00 | 85 | 1019.2 |
| 20260504040056 | 57 | 0 | 0.0 | 0.0 | 0.00 | 0.01 | 0.00 | 83 | 1019.2 |
| 20260504034557 | 58 | 0 | 0.0 | 0.0 | 0.00 | 0.01 | 0.01 | 83 | 1019.2 |
| 20260504033107 | 59 | 0 | 0.0 | 0.0 | 0.00 | 0.01 | 0.01 | 81 | 1019.1 |
| 20260504031559 | 59 | 0 | 0.0 | 0.0 | 0.00 | 0.01 | 0.01 | 80 | 1019.0 |
| 20260504030109 | 60 | 0 | 0.0 | 0.0 | 0.00 | 0.01 | 0.01 | 78 | 1018.8 |
| 20260504024557 | 61 | 0 | 0.0 | 0.0 | 0.00 | 0.01 | 0.01 | 77 | 1018.8 |
| 20260504023057 | 62 | 0 | 0.0 | 0.0 | 0.00 | 0.01 | 0.01 | 76 | 1018.6 |
| 20260504021554 | 63 | 0 | 0.0 | 0.0 | 0.00 | 0.01 | 0.01 | 69 | 1018.6 |
| 20260504020105 | 65 | 0 | 0.0 | 0.0 | 0.00 | 0.01 | 0.01 | 68 | 1018.3 |
| 20260504014606 | 66 | 0 | 0.0 | 0.0 | 0.00 | 0.01 | 0.01 | 67 | 1018.2 |
| 20260504013057 | 67 | 0 | 0.0 | 0.0 | 0.00 | 0.01 | 0.01 | 64 | 1017.8 |
| 20260504011558 | 68 | 0 | 0.0 | 0.0 | 0.00 | 0.01 | 0.01 | 61 | 1017.6 |
| 20260504010100 | 69 | 0 | 0.0 | 0.0 | 0.00 | 0.01 | 0.01 | 60 | 1017.2 |
| 20260504004557 | 69 | 0 | 0.0 | 0.0 | 0.00 | 0.01 | 0.01 | 58 | 1017.2 |
| 20260504003101 | 70 | 0 | 0.0 | 0.0 | 0.00 | 0.01 | 0.01 | 57 | 1017.2 |
| 20260504001601 | 71 | 0 | 0.0 | 0.0 | 0.00 | 0.01 | 0.01 | 55 | 1017.2 |
| 20260504000103 | 72 | 0 | 0.0 | 0.0 | 0.00 | 0.01 | 0.01 | 53 | 1017.0 |
| 20260503234554 | 73 | 0 | 0.0 | 0.0 | 0.00 | 0.01 | 0.01 | 53 | 1016.8 |
| 20260503233054 | 74 | 0 | 0.0 | 1.7 | 0.00 | 0.01 | 0.01 | 49 | 1016.9 |
| 20260503231558 | 75 | 0 | 0.0 | 0.0 | 0.00 | 0.01 | 0.01 | 47 | 1016.8 |
| 20260503230111 | 77 | 0 | 0.0 | 0.0 | 0.00 | 0.01 | 0.01 | 43 | 1016.8 |
| 20260503224609 | 77 | 0 | 0.0 | 0.0 | 0.00 | 0.01 | 0.01 | 37 | 1016.3 |
| 20260503223111 | 78 | 0 | 0.0 | 0.0 | 0.00 | 0.01 | 0.01 | 36 | 1016.4 |
| 20260503221556 | 78 | 0 | 0.0 | 0.0 | 0.00 | 0.01 | 0.01 | 36 | 1016.5 |
| 20260503220057 | 79 | 0 | 0.0 | 0.0 | 0.00 | 0.01 | 0.01 | 36 | 1016.7 |
| 20260503214600 | 78 | 0 | 0.0 | 0.0 | 0.00 | 0.01 | 0.01 | 37 | 1016.7 |
| 20260503213057 | 79 | 0 | 0.0 | 0.0 | 0.00 | 0.01 | 0.01 | 35 | 1016.7 |
| 20260503211556 | 78 | 0 | 0.0 | 0.0 | 0.00 | 0.01 | 0.01 | 36 | 1016.6 |
| 20260503210054 | 78 | 0 | 0.0 | 0.0 | 0.00 | 0.01 | 0.01 | 37 | 1016.7 |
| 20260503204557 | 79 | 0 | 0.0 | 0.0 | 0.00 | 0.01 | 0.01 | 35 | 1016.8 |
| 20260503203058 | 78 | 0 | 0.0 | 0.9 | 0.00 | 0.01 | 0.01 | 39 | 1017.1 |
| 20260503201557 | 76 | 0 | 0.0 | 0.0 | 0.00 | 0.01 | 0.01 | 40 | 1017.2 |
| 20260503200058 | 76 | 0 | 0.0 | 0.0 | 0.00 | 0.01 | 0.01 | 40 | 1017.3 |
| 20260503194619 | 75 | 0 | 0.0 | 1.7 | 0.00 | 0.01 | 0.01 | 42 | 1017.5 |
| 20260503193056 | 75 | 0 | 0.0 | 0.0 | 0.00 | 0.01 | 0.01 | 41 | 1017.6 |
| 20260503191604 | 76 | 0 | 0.0 | 0.0 | 0.00 | 0.01 | 0.01 | 44 | 1018.1 |
| 20260503190058 | 76 | 0 | 0.0 | 0.0 | 0.00 | 0.01 | 0.01 | 45 | 1018.2 |
| 20260503184559 | 74 | 0 | 0.0 | 1.7 | 0.00 | 0.01 | 0.01 | 45 | 1018.3 |
| 20260503183105 | 74 | 0 | 0.0 | 1.7 | 0.00 | 0.01 | 0.01 | 46 | 1018.5 |
| 20260503181608 | 74 | 0 | 0.0 | 0.0 | 0.00 | 0.01 | 0.01 | 48 | 1018.6 |
| 20260503180057 | 74 | 0 | 0.0 | 0.0 | 0.00 | 0.01 | 0.01 | 50 | 1018.8 |
| 20260503174616 | 73 | 0 | 0.0 | 0.0 | 0.00 | 0.01 | 0.01 | 52 | 1018.8 |
| 20260503173103 | 72 | 0 | 0.0 | 0.0 | 0.00 | 0.01 | 0.01 | 54 | 1018.9 |
| 20260503171557 | 72 | 0 | 0.0 | 0.0 | 0.00 | 0.01 | 0.01 | 50 | 1019.1 |
| 20260503170110 | 73 | 0 | 0.0 | 0.0 | 0.00 | 0.01 | 0.01 | 55 | 1019.3 |